createdAt,value
2024-02-14T00:01:23.610Z,98904.15
2024-02-14T00:03:51.144Z,98906.77
2024-02-14T00:06:19.972Z,98906.78
2024-02-14T00:08:47.504Z,98910.89
2024-02-14T00:11:15.428Z,98912.87
2024-02-14T00:13:42.874Z,98912.06
2024-02-14T00:16:11.829Z,98907.51
2024-02-14T00:18:39.568Z,98909.04
2024-02-14T00:21:07.083Z,98907.27
2024-02-14T00:23:34.581Z,98907.20
2024-02-14T00:26:02.164Z,98902.85
2024-02-14T00:28:30.154Z,98903.89
2024-02-14T00:30:57.674Z,98902.22
2024-02-14T00:33:25.385Z,98902.54
2024-02-14T00:35:53.170Z,98902.30
2024-02-14T00:38:20.765Z,98907.02
2024-02-14T00:40:48.252Z,98906.53
2024-02-14T00:43:15.725Z,98906.34
2024-02-14T00:45:43.502Z,98907.30
2024-02-14T00:48:11.064Z,98905.73
2024-02-14T00:50:39.118Z,98902.27
2024-02-14T00:53:06.646Z,98904.80
2024-02-14T00:55:34.174Z,98904.73
2024-02-14T00:58:01.602Z,98904.35
2024-02-14T01:00:29.226Z,98905.64
2024-02-14T01:02:57.392Z,98908.03
2024-02-14T01:05:25.223Z,98908.62
2024-02-14T01:07:55.026Z,98916.77
2024-02-14T01:10:22.440Z,98914.69
2024-02-14T01:12:50.256Z,98914.23
2024-02-14T01:15:17.689Z,98914.23
2024-02-14T01:17:48.884Z,98913.59
2024-02-14T01:20:16.657Z,98912.36
2024-02-14T01:22:44.526Z,98912.19
2024-02-14T01:25:12.108Z,98912.95
2024-02-14T01:27:39.871Z,98915.05
2024-02-14T01:30:07.760Z,98915.80
2024-02-14T01:32:35.356Z,98915.16
2024-02-14T01:35:02.881Z,98917.92
2024-02-14T01:37:30.486Z,98917.05
2024-02-14T01:39:58.039Z,98922.44
2024-02-14T01:42:25.479Z,98918.45
2024-02-14T01:44:52.970Z,98919.93
2024-02-14T01:47:20.382Z,98927.17
2024-02-14T01:49:48.314Z,98922.29
2024-02-14T01:52:16.294Z,98925.05
2024-02-14T01:54:43.771Z,98929.48
2024-02-14T01:57:12.557Z,98931.92
2024-02-14T01:59:40.086Z,98932.63
2024-02-14T02:02:10.886Z,98929.66
2024-02-14T02:04:38.630Z,98933.58
2024-02-14T02:07:06.098Z,98931.88
2024-02-14T02:09:34.222Z,98930.27
2024-02-14T02:12:02.183Z,98931.38
2024-02-14T02:14:31.308Z,98933.89
2024-02-14T02:16:58.863Z,98934.87
2024-02-14T02:19:26.488Z,98938.58
2024-02-14T02:21:54.487Z,98932.45
2024-02-14T02:24:21.926Z,98936.44
2024-02-14T02:26:49.386Z,98945.33
2024-02-14T02:29:17.798Z,98944.71
2024-02-14T02:31:45.432Z,98941.06
2024-02-14T02:34:13.361Z,98944.85
2024-02-14T02:36:44.846Z,98945.16
2024-02-14T02:39:15.359Z,98950.20
2024-02-14T02:41:42.816Z,98951.25
2024-02-14T02:44:10.323Z,98952.01
2024-02-14T02:46:37.825Z,98952.33
2024-02-14T02:49:05.572Z,98957.34
2024-02-14T02:51:33.165Z,98959.83
2024-02-14T02:54:00.791Z,98960.73
2024-02-14T02:56:29.015Z,98963.31
2024-02-14T02:58:56.903Z,98961.84
2024-02-14T03:01:26.215Z,98971.98
2024-02-14T03:03:53.892Z,98973.85
2024-02-14T03:06:21.876Z,98973.13
2024-02-14T03:08:50.239Z,98970.39
2024-02-14T03:11:17.848Z,98971.50
2024-02-14T03:13:45.552Z,98975.10
2024-02-14T03:16:13.066Z,98982.52
2024-02-14T03:18:40.644Z,98983.52
2024-02-14T03:21:08.158Z,98985.30
2024-02-14T03:23:35.650Z,98979.88
2024-02-14T03:26:03.814Z,98985.40
2024-02-14T03:28:31.244Z,98988.69
2024-02-14T03:30:58.669Z,98985.90
2024-02-14T03:33:26.313Z,98988.09
2024-02-14T03:35:54.091Z,98987.68
2024-02-14T03:38:28.092Z,98986.20
2024-02-14T03:40:55.760Z,98989.20
2024-02-14T03:43:25.036Z,98986.30
2024-02-14T03:45:53.116Z,98990.63
2024-02-14T03:48:20.766Z,98985.79
2024-02-14T03:50:49.579Z,98985.75
2024-02-14T03:53:18.510Z,98994.50
2024-02-14T03:55:46.034Z,98993.06
2024-02-14T03:58:15.116Z,98996.55
2024-02-14T04:00:42.752Z,98994.38
2024-02-14T04:03:13.624Z,98992.38
2024-02-14T04:05:41.211Z,98994.23
2024-02-14T04:08:11.198Z,98997.96
2024-02-14T04:10:38.941Z,99004.84
2024-02-14T04:13:06.615Z,99004.97
2024-02-14T04:15:34.144Z,99011.09
2024-02-14T04:18:07.031Z,99013.70
2024-02-14T04:20:35.511Z,99014.09
2024-02-14T04:23:03.080Z,99011.13
2024-02-14T04:25:30.511Z,99021.17
2024-02-14T04:27:57.973Z,99023.71
2024-02-14T04:30:25.591Z,99025.76
2024-02-14T04:32:53.386Z,99028.73
2024-02-14T04:35:21.149Z,99034.02
2024-02-14T04:37:50.309Z,99031.58
2024-02-14T04:40:17.840Z,99035.13
2024-02-14T04:42:45.413Z,99038.10
2024-02-14T04:45:12.992Z,99041.11
2024-02-14T04:47:40.769Z,99043.89
2024-02-14T04:50:08.632Z,99042.02
2024-02-14T04:52:36.116Z,99042.87
2024-02-14T04:55:04.932Z,99044.84
2024-02-14T04:57:32.858Z,99048.38
2024-02-14T05:00:00.483Z,99046.73
2024-02-14T05:02:29.306Z,99043.30
2024-02-14T05:04:56.884Z,99044.95
2024-02-14T05:07:24.303Z,99047.41
2024-02-14T05:09:53.436Z,99041.67
2024-02-14T05:12:21.606Z,99045.81
2024-02-14T05:14:50.103Z,99047.69
2024-02-14T05:17:17.622Z,99050.36
2024-02-14T05:19:45.202Z,99054.65
2024-02-14T05:22:12.806Z,99056.21
2024-02-14T05:24:40.311Z,99057.05
2024-02-14T05:27:07.843Z,99061.58
2024-02-14T05:29:36.848Z,99060.89
2024-02-14T05:32:05.400Z,99068.91
2024-02-14T05:34:33.052Z,99065.83
2024-02-14T05:37:00.607Z,99064.40
2024-02-14T05:39:28.095Z,99071.95
2024-02-14T05:41:55.753Z,99067.52
2024-02-14T05:44:23.906Z,99074.55
2024-02-14T05:46:51.656Z,99076.64
2024-02-14T05:49:19.306Z,99076.13
2024-02-14T05:51:46.887Z,99077.71
2024-02-14T05:54:14.371Z,99077.62
2024-02-14T05:56:41.815Z,99081.17
2024-02-14T05:59:11.203Z,99084.84
2024-02-14T06:01:38.736Z,99080.66
2024-02-14T06:04:06.262Z,99081.05
2024-02-14T06:06:33.940Z,99086.66
2024-02-14T06:09:01.537Z,99085.98
2024-02-14T06:11:29.161Z,99084.35
2024-02-14T06:13:56.830Z,99090.45
2024-02-14T06:16:24.239Z,99086.88
2024-02-14T06:18:51.911Z,99085.94
2024-02-14T06:21:20.641Z,99093.21
2024-02-14T06:23:48.451Z,99091.59
2024-02-14T06:26:16.189Z,99102.16
2024-02-14T06:28:43.590Z,99108.20
2024-02-14T06:31:11.094Z,99112.61
2024-02-14T06:33:38.704Z,99114.77
2024-02-14T06:36:06.433Z,99111.46
2024-02-14T06:38:34.158Z,99115.72
2024-02-14T06:41:02.123Z,99115.89
2024-02-14T06:43:30.297Z,99120.42
2024-02-14T06:45:58.281Z,99123.19
2024-02-14T06:48:26.163Z,99122.35
2024-02-14T06:50:53.858Z,99133.09
2024-02-14T06:53:21.543Z,99136.19
2024-02-14T06:55:49.025Z,99137.85
2024-02-14T06:58:16.588Z,99138.50
2024-02-14T07:00:45.636Z,99140.13
2024-02-14T07:03:13.402Z,99145.20
2024-02-14T07:05:41.014Z,99147.16
2024-02-14T07:08:08.683Z,99153.79
2024-02-14T07:10:36.182Z,99152.04
2024-02-14T07:13:04.441Z,99157.02
2024-02-14T07:15:31.897Z,99158.92
2024-02-14T07:18:00.419Z,99158.44
2024-02-14T07:20:28.358Z,99164.05
2024-02-14T07:22:57.997Z,99159.67
2024-02-14T07:25:25.700Z,99167.20
2024-02-14T07:27:53.255Z,99169.33
2024-02-14T07:30:20.795Z,99169.04
2024-02-14T07:32:48.382Z,99171.88
2024-02-14T07:35:15.988Z,99174.68
2024-02-14T07:37:43.880Z,99170.75
2024-02-14T07:40:11.782Z,99173.73
2024-02-14T07:42:39.195Z,99172.46
2024-02-14T07:45:06.947Z,99169.45
2024-02-14T07:47:34.656Z,99170.85
2024-02-14T07:50:03.638Z,99171.69
2024-02-14T07:52:32.670Z,99175.43
2024-02-14T07:55:01.033Z,99175.77
2024-02-14T07:57:28.851Z,99171.79
2024-02-14T07:59:56.372Z,99175.89
2024-02-14T08:02:23.922Z,99174.38
2024-02-14T08:04:53.323Z,99175.98
2024-02-14T08:07:21.001Z,99180.58
2024-02-14T08:09:48.488Z,99188.11
2024-02-14T08:12:16.064Z,99190.66
2024-02-14T08:14:43.625Z,99196.86
2024-02-14T08:17:11.218Z,99201.48
2024-02-14T08:19:39.258Z,99203.08
2024-02-14T08:22:08.137Z,99203.48
2024-02-14T08:24:35.666Z,99208.33
2024-02-14T08:27:03.198Z,99213.14
2024-02-14T08:29:30.660Z,99215.90
2024-02-14T08:31:58.135Z,99218.00
2024-02-14T08:34:26.115Z,99222.96
2024-02-14T08:36:54.465Z,99225.57
2024-02-14T08:39:21.905Z,99227.45
2024-02-14T08:41:49.429Z,99226.26
2024-02-14T08:44:16.916Z,99227.23
2024-02-14T08:46:46.122Z,99230.34
2024-02-14T08:49:13.870Z,99228.41
2024-02-14T08:51:41.693Z,99233.02
2024-02-14T08:54:09.288Z,99242.19
2024-02-14T08:56:36.827Z,99244.80
2024-02-14T08:59:04.441Z,99244.99
2024-02-14T09:01:31.895Z,99253.65
2024-02-14T09:04:00.370Z,99257.11
2024-02-14T09:06:28.006Z,99259.31
2024-02-14T09:08:56.139Z,99264.92
2024-02-14T09:11:24.290Z,99274.88
2024-02-14T09:13:57.210Z,99276.16
2024-02-14T09:16:24.694Z,99283.48
2024-02-14T09:18:52.446Z,99290.48
2024-02-14T09:21:21.224Z,99295.61
2024-02-14T09:23:49.191Z,99294.21
2024-02-14T09:26:19.722Z,99291.96
2024-02-14T09:28:47.277Z,99296.06
2024-02-14T09:31:18.598Z,99299.63
2024-02-14T09:33:47.145Z,99296.07
2024-02-14T09:36:15.611Z,99298.12
2024-02-14T09:38:43.593Z,99294.39
2024-02-14T09:41:18.890Z,99292.98
2024-02-14T09:43:46.651Z,99294.25
2024-02-14T09:46:14.988Z,99293.58
2024-02-14T09:48:46.364Z,99293.14
2024-02-14T09:51:14.436Z,99293.60
2024-02-14T09:53:42.204Z,99293.70
2024-02-14T09:56:13.386Z,99292.25
2024-02-14T09:58:41.309Z,99297.62
2024-02-14T10:01:08.895Z,99298.46
2024-02-14T10:03:37.560Z,99295.92
2024-02-14T10:06:05.913Z,99300.69
2024-02-14T10:08:34.018Z,99298.88
2024-02-14T10:11:01.728Z,99301.02
2024-02-14T10:13:30.131Z,99298.79
2024-02-14T10:15:57.781Z,99298.42
2024-02-14T10:18:25.994Z,99298.27
2024-02-14T10:20:59.511Z,99302.45
2024-02-14T10:23:31.009Z,99301.95
2024-02-14T10:25:58.486Z,99306.16
2024-02-14T10:28:32.932Z,99309.70
2024-02-14T10:31:06.610Z,99305.83
2024-02-14T10:33:34.228Z,99301.05
2024-02-14T10:36:04.016Z,99303.27
2024-02-14T10:38:32.435Z,99301.77
2024-02-14T10:41:01.380Z,99304.31
2024-02-14T10:43:28.948Z,99301.41
2024-02-14T10:45:56.623Z,99299.73
2024-02-14T10:48:28.034Z,99301.48
2024-02-14T10:50:56.267Z,99305.42
2024-02-14T10:53:23.770Z,99306.08
2024-02-14T10:55:51.514Z,99307.77
2024-02-14T10:58:19.211Z,99307.98
2024-02-14T11:00:47.132Z,99311.66
2024-02-14T11:03:16.594Z,99306.45
2024-02-14T11:05:46.543Z,99304.05
2024-02-14T11:08:21.464Z,99307.46
2024-02-14T11:10:56.053Z,99306.30
2024-02-14T11:13:26.480Z,99304.92
2024-02-14T11:15:55.922Z,99303.27
2024-02-14T11:18:27.398Z,99305.45
2024-02-14T11:20:54.979Z,99308.73
2024-02-14T11:23:22.951Z,99313.81
2024-02-14T11:25:50.525Z,99311.98
2024-02-14T11:28:18.551Z,99311.61
2024-02-14T11:30:46.039Z,99319.49
2024-02-14T11:33:24.031Z,99324.97
2024-02-14T11:35:52.964Z,99331.52
2024-02-14T11:38:21.009Z,99334.67
2024-02-14T11:40:48.620Z,99338.69
2024-02-14T11:43:18.094Z,99335.06
2024-02-14T11:45:46.678Z,99337.25
2024-02-14T11:48:14.655Z,99331.92
2024-02-14T11:50:42.693Z,99338.96
2024-02-14T11:53:14.724Z,99341.89
2024-02-14T11:55:42.656Z,99336.34
2024-02-14T11:58:11.676Z,99330.69
2024-02-14T12:00:42.348Z,99335.39
2024-02-14T12:03:13.754Z,99331.28
2024-02-14T12:05:42.625Z,99329.49
2024-02-14T12:08:10.957Z,99332.48
2024-02-14T12:10:41.640Z,99333.48
2024-02-14T12:13:09.941Z,99337.08
2024-02-14T12:15:41.246Z,99337.25
2024-02-14T12:18:12.034Z,99337.20
2024-02-14T12:20:39.850Z,99338.02
2024-02-14T12:23:07.325Z,99341.86
2024-02-14T12:25:35.101Z,99348.77
2024-02-14T12:28:02.626Z,99352.30
2024-02-14T12:30:59.551Z,99353.52
2024-02-14T12:33:27.720Z,99357.74
2024-02-14T12:35:56.065Z,99361.31
2024-02-14T12:38:26.576Z,99361.52
2024-02-14T12:40:57.142Z,99362.27
2024-02-14T12:43:24.685Z,99366.69
2024-02-14T12:45:52.108Z,99371.03
2024-02-14T12:48:23.566Z,99373.55
2024-02-14T12:50:52.828Z,99377.23
2024-02-14T12:53:23.321Z,99377.80
2024-02-14T12:55:50.815Z,99377.67
2024-02-14T12:58:18.277Z,99379.91
2024-02-14T13:00:46.147Z,99379.56
2024-02-14T13:03:16.520Z,99378.98
2024-02-14T13:05:46.279Z,99381.23
2024-02-14T13:08:13.888Z,99388.73
2024-02-14T13:10:41.327Z,99380.95
2024-02-14T13:13:08.782Z,99394.63
2024-02-14T13:15:36.707Z,99394.83
2024-02-14T13:18:04.507Z,99403.20
2024-02-14T13:20:32.654Z,99406.46
2024-02-14T13:23:00.222Z,99406.52
2024-02-14T13:25:27.703Z,99413.60
2024-02-14T13:27:56.295Z,99410.50
2024-02-14T13:30:24.165Z,99414.60
2024-02-14T13:32:51.818Z,99418.27
2024-02-14T13:35:19.802Z,99427.11
2024-02-14T13:37:47.752Z,99429.08
2024-02-14T13:40:15.739Z,99435.73
2024-02-14T13:42:43.315Z,99438.98
2024-02-14T13:45:11.608Z,99443.60
2024-02-14T13:47:43.684Z,99440.48
2024-02-14T13:50:11.408Z,99450.73
2024-02-14T13:52:38.917Z,99458.72
2024-02-14T13:55:06.860Z,99456.47
2024-02-14T13:57:40.505Z,99458.06
2024-02-14T14:00:10.752Z,99457.98
2024-02-14T14:02:44.674Z,99467.80
2024-02-14T14:05:15.541Z,99469.82
2024-02-14T14:07:54.265Z,99475.27
2024-02-14T14:10:29.636Z,99482.74
2024-02-14T14:12:57.682Z,99479.84
2024-02-14T14:15:25.761Z,99482.66
2024-02-14T14:17:53.743Z,99482.00
2024-02-14T14:20:21.811Z,99481.02
2024-02-14T14:22:49.825Z,99485.25
2024-02-14T14:25:19.462Z,99486.10
2024-02-14T14:27:47.255Z,99490.92
2024-02-14T14:30:15.051Z,99488.92
2024-02-14T14:32:42.662Z,99487.45
2024-02-14T14:35:13.485Z,99490.01
2024-02-14T14:37:41.099Z,99499.54
2024-02-14T14:40:09.861Z,99505.75
2024-02-14T14:42:38.212Z,99508.90
2024-02-14T14:45:06.201Z,99511.08
2024-02-14T14:47:34.035Z,99515.37
2024-02-14T14:50:01.676Z,99519.86
2024-02-14T14:52:29.397Z,99525.78
2024-02-14T14:54:56.920Z,99527.42
2024-02-14T14:57:24.907Z,99527.89
2024-02-14T14:59:54.677Z,99524.74
2024-02-14T15:02:23.509Z,99525.56
2024-02-14T15:04:52.157Z,99527.11
2024-02-14T15:07:21.460Z,99531.95
2024-02-14T15:09:49.052Z,99535.73
2024-02-14T15:12:16.718Z,99536.70
2024-02-14T15:14:44.245Z,99532.99
2024-02-14T15:17:11.784Z,99538.30
2024-02-14T15:19:39.375Z,99534.66
2024-02-14T15:22:06.859Z,99540.55
2024-02-14T15:24:37.046Z,99543.65
2024-02-14T15:27:06.302Z,99546.58
2024-02-14T15:29:52.570Z,99550.93
2024-02-14T15:32:38.787Z,99551.91
2024-02-14T15:35:06.451Z,99555.27
2024-02-14T15:37:33.951Z,99557.72
2024-02-14T15:40:01.474Z,99560.45
2024-02-14T15:42:29.014Z,99562.54
2024-02-14T15:44:56.620Z,99565.34
2024-02-14T15:47:24.118Z,99568.83
2024-02-14T15:49:51.638Z,99573.98
2024-02-14T15:52:21.229Z,99575.31
2024-02-14T15:54:49.014Z,99578.23
2024-02-14T15:57:16.719Z,99579.04
2024-02-14T15:59:44.357Z,99580.70
2024-02-14T16:02:11.962Z,99581.48
2024-02-14T16:04:39.814Z,99586.49
2024-02-14T16:07:07.595Z,99587.84
2024-02-14T16:09:35.073Z,99593.89
2024-02-14T16:12:02.673Z,99592.27
2024-02-14T16:14:30.988Z,99594.40
2024-02-14T16:16:58.917Z,99601.25
2024-02-14T16:19:26.605Z,99601.23
2024-02-14T16:22:02.153Z,99605.61
2024-02-14T16:24:37.840Z,99605.39
2024-02-14T16:27:05.854Z,99609.48
2024-02-14T16:29:33.493Z,99612.02
2024-02-14T16:32:01.317Z,99614.08
2024-02-14T16:34:29.038Z,99611.98
2024-02-14T16:36:56.896Z,99614.64
2024-02-14T16:39:35.312Z,99615.52
2024-02-14T16:42:09.488Z,99625.98
2024-02-14T16:44:37.862Z,99627.74
2024-02-14T16:47:05.813Z,99632.51
2024-02-14T16:49:36.144Z,99631.87
2024-02-14T16:52:03.996Z,99635.34
2024-02-14T16:54:32.507Z,99638.00
2024-02-14T16:57:06.757Z,99640.23
2024-02-14T16:59:34.816Z,99639.19
2024-02-14T17:02:02.349Z,99638.09
2024-02-14T17:04:30.050Z,99639.52
2024-02-14T17:06:57.811Z,99642.30
2024-02-14T17:09:25.481Z,79713.60
2024-02-14T17:11:53.177Z,99646.49
2024-02-14T17:14:20.681Z,99650.05
2024-02-14T17:16:49.726Z,99655.23
2024-02-14T17:19:20.871Z,59795.50
2024-02-14T17:21:48.892Z,99662.88
2024-02-14T17:24:16.501Z,79722.88
2024-02-14T17:26:44.003Z,-1.00
2024-02-14T17:29:11.925Z,-1.00
2024-02-14T17:31:39.747Z,-1.00
2024-02-14T17:34:07.483Z,-1.00
2024-02-14T17:36:35.199Z,-1.00
2024-02-14T17:39:06.456Z,-1.00
2024-02-14T17:41:34.671Z,59795.05
2024-02-14T17:44:07.226Z,59801.24
2024-02-14T17:46:35.325Z,99668.04
2024-02-14T17:49:03.998Z,79739.54
2024-02-14T17:51:33.139Z,79740.29
2024-02-14T17:54:00.628Z,99675.23
2024-02-14T17:56:28.139Z,99679.92
2024-02-14T17:58:55.644Z,99677.58
2024-02-14T18:01:24.421Z,99678.16
2024-02-14T18:03:51.890Z,99678.64
2024-02-14T18:06:19.544Z,99680.93
2024-02-14T18:08:47.178Z,99683.20
2024-02-14T18:11:14.707Z,99688.38
2024-02-14T18:13:42.405Z,99692.10
2024-02-14T18:16:11.473Z,99698.53
2024-02-14T18:18:42.502Z,99692.20
2024-02-14T18:21:10.135Z,99696.20
2024-02-14T18:23:38.662Z,99697.16
2024-02-14T18:26:07.511Z,99697.46
2024-02-14T18:28:35.100Z,99704.52
2024-02-14T18:31:02.540Z,99707.05
2024-02-14T18:33:30.230Z,99710.59
2024-02-14T18:35:57.814Z,99708.16
2024-02-14T18:38:32.277Z,99710.70
2024-02-14T18:41:01.022Z,99712.80
2024-02-14T18:43:28.744Z,99718.23
2024-02-14T18:45:56.486Z,99717.15
2024-02-14T18:48:24.051Z,99719.76
2024-02-14T18:50:51.637Z,99717.45
2024-02-14T18:53:19.234Z,99717.79
2024-02-14T18:55:46.817Z,99717.15
2024-02-14T18:58:14.282Z,99719.42
2024-02-14T19:00:41.693Z,99719.16
2024-02-14T19:03:09.279Z,99718.35
2024-02-14T19:05:36.818Z,99718.00
2024-02-14T19:08:05.053Z,99718.09
2024-02-14T19:10:33.085Z,99718.88
2024-02-14T19:13:01.740Z,99714.06
2024-02-14T19:15:29.362Z,99717.89
2024-02-14T19:17:57.849Z,99717.90
2024-02-14T19:20:29.165Z,99720.14
2024-02-14T19:22:56.769Z,99725.84
2024-02-14T19:25:24.681Z,99724.98
2024-02-14T19:27:52.195Z,99730.17
2024-02-14T19:30:20.026Z,99734.29
2024-02-14T19:32:47.652Z,99734.75
2024-02-14T19:35:15.147Z,99737.82
2024-02-14T19:37:42.906Z,99737.08
2024-02-14T19:40:12.367Z,99739.64
2024-02-14T19:42:40.061Z,99737.84
2024-02-14T19:45:08.151Z,99738.11
2024-02-14T19:47:35.662Z,99735.36
2024-02-14T19:50:09.071Z,99736.17
2024-02-14T19:52:37.933Z,99736.64
2024-02-14T19:55:05.729Z,99738.08
2024-02-14T19:57:35.736Z,99737.14
2024-02-14T20:00:05.631Z,99740.02
2024-02-14T20:02:39.757Z,99736.98
2024-02-14T20:05:08.960Z,99738.39
2024-02-14T20:07:36.697Z,99741.75
2024-02-14T20:10:05.461Z,99742.21
2024-02-14T20:12:37.336Z,99736.29
2024-02-14T20:15:09.605Z,99739.85
2024-02-14T20:17:37.256Z,99738.95
2024-02-14T20:20:10.868Z,99740.54
2024-02-14T20:22:38.441Z,99743.29
2024-02-14T20:25:06.083Z,99742.66
2024-02-14T20:27:33.974Z,99745.33
2024-02-14T20:30:01.541Z,99742.79
2024-02-14T20:32:30.138Z,99745.30
2024-02-14T20:34:57.854Z,99746.50
2024-02-14T20:37:26.069Z,99740.45
2024-02-14T20:39:53.425Z,99742.30
2024-02-14T20:42:21.636Z,99747.16
2024-02-14T20:44:49.146Z,99750.88
2024-02-14T20:47:16.736Z,99746.51
2024-02-14T20:49:44.820Z,99743.88
2024-02-14T20:52:12.367Z,99742.87
2024-02-14T20:54:39.791Z,99743.12
2024-02-14T20:57:07.290Z,99742.63
2024-02-14T20:59:35.214Z,99747.45
2024-02-14T21:02:02.686Z,99750.92
2024-02-14T21:04:30.287Z,99751.85
2024-02-14T21:06:57.884Z,99751.56
2024-02-14T21:09:25.339Z,99755.05
2024-02-14T21:11:52.850Z,99752.80
2024-02-14T21:14:20.355Z,99752.85
2024-02-14T21:16:47.972Z,99758.27
2024-02-14T21:19:15.419Z,99758.65
2024-02-14T21:21:42.915Z,99762.42
2024-02-14T21:24:10.917Z,99767.04
2024-02-14T21:26:38.504Z,99767.57
2024-02-14T21:29:06.746Z,59862.00
2024-02-14T21:31:34.159Z,99769.87
2024-02-14T21:34:01.811Z,99779.67
2024-02-14T21:36:29.507Z,79820.52
2024-02-14T21:38:56.995Z,99782.81
2024-02-14T21:41:24.502Z,99783.09
2024-02-14T21:43:52.007Z,99782.97
2024-02-14T21:46:19.831Z,99785.67
2024-02-14T21:48:47.460Z,-1.00
2024-02-14T21:51:17.418Z,99795.90
2024-02-14T21:53:44.862Z,59874.71
2024-02-14T21:56:12.404Z,79838.25
2024-02-14T21:58:39.915Z,99797.77
2024-02-14T22:01:09.250Z,99798.91
2024-02-14T22:03:36.707Z,99798.14
2024-02-14T22:06:04.259Z,99798.48
2024-02-14T22:08:31.919Z,99801.31
2024-02-14T22:10:59.731Z,19959.35
2024-02-14T22:13:27.207Z,-1.00
2024-02-14T22:15:54.662Z,-1.00
2024-02-14T22:18:22.309Z,39920.83
2024-02-14T22:20:50.987Z,79845.18
2024-02-14T22:23:19.611Z,99807.59
2024-02-14T22:25:47.147Z,99812.65
2024-02-14T22:28:14.666Z,55476.26
2024-02-14T22:30:42.745Z,79855.17
2024-02-14T22:33:11.419Z,99817.38
2024-02-14T22:35:39.348Z,79853.32
2024-02-14T22:38:10.384Z,99817.69
2024-02-14T22:40:37.962Z,99816.77
2024-02-14T22:43:09.049Z,59893.48
2024-02-14T22:45:37.344Z,99820.04
2024-02-14T22:48:07.442Z,59892.53
2024-02-14T22:50:35.182Z,19963.39
2024-02-14T22:53:04.050Z,19963.55
2024-02-14T22:55:32.060Z,39930.14
2024-02-14T22:58:00.561Z,19964.57
2024-02-14T23:00:28.451Z,19964.57
2024-02-14T23:02:56.083Z,-1.00
2024-02-14T23:05:23.755Z,-1.00
2024-02-14T23:07:51.290Z,-1.00
2024-02-14T23:10:18.838Z,19964.57
2024-02-14T23:12:46.380Z,104116.23
2024-02-14T23:15:13.961Z,99830.96
2024-02-14T23:17:42.928Z,99833.98
2024-02-14T23:20:13.451Z,99833.03
2024-02-14T23:22:44.505Z,99836.02
2024-02-14T23:25:12.004Z,99834.80
2024-02-14T23:27:39.864Z,99833.11
2024-02-14T23:30:08.844Z,104119.21
2024-02-14T23:32:39.995Z,99837.20
2024-02-14T23:35:11.315Z,59900.25
2024-02-14T23:37:40.567Z,99835.45
2024-02-14T23:40:12.039Z,99841.63
2024-02-14T23:42:40.454Z,79877.30
2024-02-14T23:45:10.896Z,99845.33
2024-02-14T23:47:39.221Z,99848.73
2024-02-14T23:50:07.599Z,39937.09
2024-02-14T23:52:35.489Z,39937.09
2024-02-14T23:55:03.100Z,99845.26
2024-02-14T23:57:30.606Z,99854.86
2024-02-14T23:59:58.141Z,99848.80
